Lisbon, Ohio
Current Conditions -  °F | °C
As of 1:51 AM on Friday 28 Nov 2014 (Local Time) from KPIT Reporting Station
Light Snow Light Snow  
Wind Chill: 17°   Ceiling: 1900
Heat Index: 28°   Visibility: 7mi
Dew Point: 23°   Wind: 15mph
Humidity: 81%   Direction: 300°WNW
Pressure: 30.21"   Gusts: NA
Location:  40.77°N, 80.77°W
Report Text: KPIT 280651Z 30013KT 7SM -SN OVC019 M02/M05 A3021 RMK AO2 SNB33 SLP249 P0000 T10221050
Loading
Personal Weather Stations






























Interactive Weather Map New forecast layout! Learn more

10-Day Weather Forecast

Advertisements
Track Severe Weather on mobile